Time;durP1;ratioP1;P1;durP2;ratioP2;P2;SDS_P1;SDS_P2;PMS_P1;PMS_P2;Temp;Humidity;BMP_temperature;BMP_pressure;BME280_temperature;BME280_humidity;BME280_pressure;Samples;Min_cycle;Max_cycle;Signal;HPM_P1;HPM_P2
2022/12/20 00:01:19;;;;;;;13.00;8.83;;;6.20;99.90;;;;;;5093402;28;20462;-67
2022/12/20 00:03:48;;;;;;;13.77;9.87;;;6.00;99.90;;;;;;5094791;28;20208;-64
2022/12/20 00:06:15;;;;;;;15.33;9.80;;;5.90;99.90;;;;;;5094509;28;20228;-64
2022/12/20 00:08:42;;;;;;;13.73;9.70;;;5.80;99.90;;;;;;5094573;28;20216;-63
2022/12/20 00:11:11;;;;;;;14.00;9.77;;;5.90;99.90;;;;;;5093491;28;20200;-65
2022/12/20 00:13:38;;;;;;;16.53;9.70;;;5.90;99.90;;;;;;5093854;28;20203;-65
2022/12/20 00:16:07;;;;;;;13.53;9.87;;;6.00;99.90;;;;;;5093662;28;20209;-65
2022/12/20 00:18:34;;;;;;;13.77;9.17;;;5.90;99.90;;;;;;5093996;28;20200;-65
2022/12/20 00:21:01;;;;;;;15.70;9.80;;;5.80;99.90;;;;;;5093475;28;20224;-65
2022/12/20 00:23:29;;;;;;;15.20;9.67;;;5.70;99.90;;;;;;5094260;28;20224;-64
2022/12/20 00:26:01;;;;;;;14.63;9.80;;;5.70;99.90;;;;;;5094214;28;20631;-65
2022/12/20 00:28:29;;;;;;;13.40;9.70;;;5.70;99.90;;;;;;5093832;28;20215;-65
2022/12/20 00:30:56;;;;;;;12.80;9.37;;;5.80;99.90;;;;;;5093521;28;20207;-65
2022/12/20 00:33:23;;;;;;;14.93;9.50;;;5.80;99.90;;;;;;5094355;28;20208;-64
2022/12/20 00:35:50;;;;;;;14.10;9.23;;;5.80;99.90;;;;;;5095379;28;20200;-65
2022/12/20 00:38:16;;;;;;;13.67;9.70;;;5.80;99.90;;;;;;5096924;28;20204;-64
2022/12/20 00:40:43;;;;;;;11.87;8.83;;;5.70;99.90;;;;;;5096392;28;20250;-65
2022/12/20 00:43:10;;;;;;;12.10;9.13;;;5.60;99.90;;;;;;5096086;28;20211;-66
2022/12/20 00:45:38;;;;;;;14.30;9.37;;;5.60;99.90;;;;;;5095376;28;20215;-66
2022/12/20 00:48:05;;;;;;;14.43;10.17;;;5.50;99.90;;;;;;5094337;28;20228;-66
2022/12/20 00:50:32;;;;;;;13.37;9.03;;;5.50;99.90;;;;;;5093841;28;20215;-65
2022/12/20 00:52:59;;;;;;;15.10;9.70;;;5.40;99.90;;;;;;5094778;28;20211;-64
2022/12/20 00:55:25;;;;;;;14.47;9.77;;;5.40;99.90;;;;;;5094298;28;20208;-65
2022/12/20 00:57:52;;;;;;;16.57;10.67;;;5.40;99.90;;;;;;5094337;28;20224;-64
2022/12/20 01:00:20;;;;;;;13.17;8.90;;;5.40;99.90;;;;;;5094279;28;20223;-65
2022/12/20 01:02:48;;;;;;;16.47;9.77;;;5.40;99.90;;;;;;5094026;28;20201;-65
2022/12/20 01:05:15;;;;;;;14.63;9.73;;;5.40;99.90;;;;;;5094401;28;20215;-65
2022/12/20 01:07:41;;;;;;;14.47;9.70;;;5.40;99.90;;;;;;5093887;28;20315;-64
2022/12/20 01:10:09;;;;;;;13.97;9.67;;;5.40;99.90;;;;;;5093385;28;20200;-64
2022/12/20 01:12:36;;;;;;;15.13;9.40;;;5.50;99.90;;;;;;5094719;28;20211;-64
2022/12/20 01:15:04;;;;;;;14.83;9.33;;;5.50;99.90;;;;;;5093544;28;20211;-65
2022/12/20 01:17:30;;;;;;;14.57;9.87;;;5.50;99.90;;;;;;5093237;28;20228;-65
2022/12/20 01:19:59;;;;;;;14.60;8.97;;;5.50;99.90;;;;;;5093056;28;20737;-65
2022/12/20 01:22:25;;;;;;;14.23;9.90;;;5.40;99.90;;;;;;5093594;28;20234;-65
2022/12/20 01:24:52;;;;;;;13.37;9.40;;;5.50;99.90;;;;;;5094687;28;20231;-64
2022/12/20 01:27:19;;;;;;;14.60;9.23;;;5.50;99.90;;;;;;5094931;28;20236;-64
2022/12/20 01:29:45;;;;;;;13.13;9.47;;;5.60;99.90;;;;;;5093750;28;20204;-64
2022/12/20 01:32:12;;;;;;;14.63;9.30;;;5.60;99.90;;;;;;5092690;28;20687;-66
2022/12/20 01:34:39;;;;;;;15.13;9.63;;;5.60;99.90;;;;;;5092903;28;20215;-64
2022/12/20 01:37:07;;;;;;;14.80;9.90;;;5.60;99.90;;;;;;5092389;28;20725;-64
2022/12/20 01:39:34;;;;;;;13.87;9.60;;;5.70;99.90;;;;;;5092768;28;20220;-65
2022/12/20 01:42:00;;;;;;;14.23;9.90;;;5.70;99.90;;;;;;5092185;28;20211;-64
2022/12/20 01:44:57;;;;;;;14.13;9.10;;;5.80;99.90;;;;;;5092853;28;20622;-64
2022/12/20 01:47:26;;;;;;;15.47;10.30;;;5.90;99.90;;;;;;5092608;28;20232;-64
2022/12/20 01:49:55;;;;;;;13.77;9.07;;;5.90;99.90;;;;;;5092307;28;20204;-64
2022/12/20 01:52:28;;;;;;;16.90;9.20;;;5.90;99.90;;;;;;5094192;28;20207;-64
2022/12/20 01:55:02;;;;;;;15.30;9.27;;;5.90;99.90;;;;;;5096576;28;20328;-64
2022/12/20 01:57:34;;;;;;;14.23;9.57;;;5.80;99.90;;;;;;5096691;28;20242;-64
2022/12/20 02:00:01;;;;;;;14.23;9.63;;;5.80;99.90;;;;;;5096295;28;20216;-64
2022/12/20 02:02:28;;;;;;;14.43;9.70;;;5.80;99.90;;;;;;5096628;28;20587;-65
2022/12/20 02:04:55;;;;;;;13.33;9.67;;;5.70;99.90;;;;;;5096469;28;20299;-65
2022/12/20 02:07:26;;;;;;;13.27;9.40;;;5.80;99.90;;;;;;5096334;28;20228;-65
2022/12/20 02:09:56;;;;;;;12.07;9.20;;;5.80;99.90;;;;;;5096500;28;20200;-64
2022/12/20 02:12:24;;;;;;;14.53;9.60;;;5.70;99.90;;;;;;5097085;28;20482;-65
2022/12/20 02:15:06;;;;;;;14.30;9.47;;;5.60;99.90;;;;;;5096311;28;20219;-65
2022/12/20 02:17:45;;;;;;;17.37;9.60;;;5.70;99.90;;;;;;5095929;28;20593;-65
2022/12/20 02:20:32;;;;;;;12.93;8.63;;;5.90;99.90;;;;;;5095326;28;20737;-64
2022/12/20 02:23:22;;;;;;;11.63;8.57;;;5.90;99.90;;;;;;5097781;28;20207;-64
2022/12/20 02:26:01;;;;;;;12.63;8.47;;;5.80;99.90;;;;;;5096261;28;20205;-64
2022/12/20 02:28:48;;;;;;;15.23;9.13;;;5.60;99.90;;;;;;5096412;28;20215;-64
2022/12/20 02:31:21;;;;;;;13.87;9.70;;;5.60;99.90;;;;;;5095279;28;20560;-65
2022/12/20 02:33:50;;;;;;;13.77;8.90;;;5.80;99.90;;;;;;5095773;28;20698;-65
2022/12/20 02:36:18;;;;;;;14.93;9.00;;;5.90;99.90;;;;;;5095721;28;20228;-65
2022/12/20 02:38:44;;;;;;;12.30;8.97;;;5.90;99.90;;;;;;5096213;28;20214;-64
2022/12/20 02:41:15;;;;;;;12.23;8.80;;;6.00;99.90;;;;;;5095302;28;20251;-65
2022/12/20 02:46:32;;;;;;;12.67;8.77;;;6.00;99.90;;;;;;5095970;28;20227;-65
2022/12/20 02:49:02;;;;;;;13.00;9.07;;;6.00;99.90;;;;;;5095896;28;20591;-64
2022/12/20 02:51:31;;;;;;;11.70;8.33;;;6.00;99.90;;;;;;5096176;28;20211;-65
2022/12/20 02:54:00;;;;;;;13.33;9.23;;;6.10;99.90;;;;;;5095859;28;20215;-64
2022/12/20 02:56:31;;;;;;;12.43;8.33;;;6.10;99.90;;;;;;5095302;28;20228;-64
2022/12/20 02:59:04;;;;;;;13.10;8.67;;;6.20;99.90;;;;;;5095591;28;20200;-66
2022/12/20 03:01:38;;;;;;;13.20;8.67;;;6.00;99.90;;;;;;5095132;28;20314;-65
2022/12/20 03:04:06;;;;;;;11.23;8.33;;;5.90;99.90;;;;;;5095474;28;20215;-65
2022/12/20 03:06:33;;;;;;;13.10;8.63;;;5.90;99.90;;;;;;5096363;28;20223;-64
2022/12/20 03:09:00;;;;;;;11.07;7.93;;;5.70;99.90;;;;;;5098746;28;20214;-65
2022/12/20 03:11:26;;;;;;;12.03;8.60;;;5.70;99.90;;;;;;5099585;28;20200;-64
2022/12/20 03:13:53;;;;;;;12.47;8.97;;;5.80;99.90;;;;;;5098158;28;20219;-64
2022/12/20 03:16:20;;;;;;;14.90;9.27;;;5.90;99.90;;;;;;5098436;28;20228;-64
2022/12/20 03:18:48;;;;;;;12.13;9.20;;;6.00;99.90;;;;;;5101020;28;20216;-64
2022/12/20 03:21:15;;;;;;;11.70;8.97;;;6.00;99.90;;;;;;5096441;28;20707;-64
2022/12/20 03:23:41;;;;;;;12.40;8.97;;;6.00;99.90;;;;;;5095855;28;20204;-64
2022/12/20 03:26:08;;;;;;;14.00;9.40;;;6.10;99.90;;;;;;5095193;28;20734;-65
2022/12/20 03:28:35;;;;;;;14.73;9.17;;;6.10;99.90;;;;;;5094805;28;20702;-65
2022/12/20 03:31:02;;;;;;;13.13;8.90;;;6.20;99.90;;;;;;5094585;28;20207;-64
2022/12/20 03:33:28;;;;;;;11.73;8.80;;;6.20;99.90;;;;;;5094776;28;20657;-64
2022/12/20 03:35:57;;;;;;;13.17;8.63;;;6.20;99.90;;;;;;5094669;28;20219;-63
2022/12/20 03:38:23;;;;;;;13.73;9.40;;;6.40;99.90;;;;;;5094814;28;20671;-64
2022/12/20 03:40:50;;;;;;;13.10;8.87;;;6.40;99.90;;;;;;5093944;28;20611;-64
2022/12/20 03:43:17;;;;;;;13.20;8.30;;;6.50;99.90;;;;;;5094674;28;20211;-65
2022/12/20 03:45:43;;;;;;;10.33;7.97;;;6.50;99.90;;;;;;5094657;28;20200;-64
2022/12/20 03:48:10;;;;;;;11.00;8.07;;;6.50;99.90;;;;;;5094365;28;20212;-64
2022/12/20 03:50:37;;;;;;;13.13;8.50;;;6.60;99.90;;;;;;5093853;28;20201;-65
2022/12/20 03:53:05;;;;;;;12.33;8.33;;;6.70;99.90;;;;;;5094537;28;20208;-65
2022/12/20 03:55:32;;;;;;;11.87;8.20;;;6.70;99.90;;;;;;5094266;28;20216;-65
2022/12/20 03:57:59;;;;;;;11.57;8.83;;;6.70;99.90;;;;;;5094927;28;20228;-65
2022/12/20 04:00:26;;;;;;;12.33;8.40;;;6.70;99.90;;;;;;5093607;28;20228;-64
2022/12/20 04:02:52;;;;;;;12.87;8.23;;;6.60;99.90;;;;;;5093901;28;20253;-64
2022/12/20 04:05:20;;;;;;;11.63;7.93;;;6.50;99.90;;;;;;5093853;28;20584;-66
2022/12/20 04:07:46;;;;;;;10.37;7.67;;;6.40;99.90;;;;;;5093970;28;20228;-64
2022/12/20 04:10:15;;;;;;;10.67;7.00;;;6.50;99.90;;;;;;5094226;28;20220;-65
2022/12/20 04:12:41;;;;;;;10.67;7.43;;;6.50;99.90;;;;;;5094615;28;20698;-64
2022/12/20 04:15:09;;;;;;;11.90;8.13;;;6.50;99.90;;;;;;5093481;28;20798;-64
2022/12/20 04:17:35;;;;;;;11.97;8.27;;;6.60;99.90;;;;;;5093715;28;20604;-64
2022/12/20 04:20:17;;;;;;;11.53;8.20;;;6.60;99.90;;;;;;5093911;28;20204;-63
2022/12/20 04:22:45;;;;;;;9.77;7.60;;;6.70;99.90;;;;;;5093928;28;20208;-64
2022/12/20 04:25:12;;;;;;;11.10;7.87;;;6.80;99.90;;;;;;5093741;28;20620;-66
2022/12/20 04:27:40;;;;;;;11.07;7.97;;;6.90;99.90;;;;;;5093461;28;20281;-65
2022/12/20 04:30:08;;;;;;;9.93;7.20;;;6.90;99.90;;;;;;5093834;28;20208;-65
2022/12/20 04:32:35;;;;;;;10.77;6.80;;;6.70;99.90;;;;;;5093119;28;20204;-65
2022/12/20 04:35:02;;;;;;;10.40;7.07;;;6.70;99.90;;;;;;5093413;28;20682;-64
2022/12/20 04:37:30;;;;;;;9.97;7.47;;;6.70;99.90;;;;;;5093381;28;20700;-65
2022/12/20 04:39:58;;;;;;;10.27;6.93;;;6.80;99.90;;;;;;5093823;28;20215;-64
2022/12/20 04:42:25;;;;;;;11.20;7.33;;;6.80;99.90;;;;;;5094676;28;20224;-65
2022/12/20 04:44:53;;;;;;;11.17;7.57;;;6.90;99.90;;;;;;5093555;28;20200;-65
2022/12/20 04:47:20;;;;;;;12.40;7.83;;;6.90;99.90;;;;;;5093896;28;20270;-65
2022/12/20 04:49:47;;;;;;;11.50;7.90;;;7.00;99.90;;;;;;5093633;28;20701;-65
2022/12/20 04:54:58;;;;;;;9.57;7.43;;;7.20;99.90;;;;;;5094439;28;20221;-65
2022/12/20 04:57:24;;;;;;;9.53;7.57;;;7.30;99.90;;;;;;5093288;28;20537;-64
2022/12/20 04:59:53;;;;;;;9.90;7.50;;;7.30;99.90;;;;;;5093157;28;20591;-64
2022/12/20 05:02:19;;;;;;;11.20;7.47;;;7.30;99.90;;;;;;5092286;28;20664;-65
2022/12/20 05:04:46;;;;;;;11.13;7.87;;;7.00;99.90;;;;;;5092754;28;20204;-65
2022/12/20 05:07:13;;;;;;;12.00;8.33;;;6.80;99.90;;;;;;5092989;28;20227;-66
2022/12/20 05:09:40;;;;;;;11.90;7.50;;;6.60;99.90;;;;;;5094218;28;20587;-66
2022/12/20 05:12:07;;;;;;;10.80;6.77;;;6.60;99.90;;;;;;5091779;28;20207;-65
2022/12/20 05:14:33;;;;;;;11.67;7.67;;;6.80;99.90;;;;;;5092826;28;20212;-64
2022/12/20 05:17:01;;;;;;;8.63;6.77;;;7.10;99.90;;;;;;5092644;28;20239;-65
2022/12/20 05:19:28;;;;;;;15.30;10.90;;;7.20;99.90;;;;;;5092580;28;20200;-67
2022/12/20 05:27:23;;;;;;;9.80;7.27;;;7.60;99.90;;;;;;5092342;28;20238;-65
2022/12/20 05:29:50;;;;;;;10.83;7.47;;;7.70;99.90;;;;;;5093463;28;20682;-65
2022/12/20 05:32:18;;;;;;;11.50;8.00;;;7.80;99.90;;;;;;5092258;28;20204;-65
2022/12/20 05:34:45;;;;;;;10.23;7.50;;;7.90;99.90;;;;;;5092205;28;20727;-66
2022/12/20 05:37:11;;;;;;;11.87;7.23;;;8.00;99.90;;;;;;5092428;28;20224;-66
2022/12/20 05:39:38;;;;;;;10.30;6.67;;;7.90;99.90;;;;;;5092700;28;20694;-67
2022/12/20 05:42:05;;;;;;;10.90;6.50;;;7.80;99.90;;;;;;5091668;28;20260;-67
2022/12/20 05:44:32;;;;;;;12.17;7.50;;;7.60;99.90;;;;;;5092381;28;20208;-67
2022/12/20 05:46:58;;;;;;;8.90;6.73;;;7.60;99.90;;;;;;5092207;28;20220;-64
2022/12/20 05:49:26;;;;;;;12.00;7.93;;;7.60;99.90;;;;;;5092208;28;20219;-66
2022/12/20 05:51:53;;;;;;;17.77;11.27;;;7.50;99.90;;;;;;5092919;28;20695;-66
2022/12/20 05:54:20;;;;;;;12.07;8.20;;;7.50;99.90;;;;;;5092332;28;20215;-67
2022/12/20 05:56:47;;;;;;;12.47;7.10;;;7.40;99.90;;;;;;5092016;28;20712;-65
2022/12/20 05:59:13;;;;;;;13.83;9.20;;;7.40;99.90;;;;;;5092417;28;20219;-65
2022/12/20 06:01:40;;;;;;;11.27;7.63;;;7.50;99.90;;;;;;5091805;28;20235;-66
2022/12/20 06:04:07;;;;;;;12.63;8.63;;;7.50;99.90;;;;;;5093124;28;20219;-66
2022/12/20 06:06:35;;;;;;;10.73;6.90;;;7.60;99.90;;;;;;5095095;28;20281;-66
2022/12/20 06:09:02;;;;;;;8.20;6.33;;;7.70;99.90;;;;;;5094425;28;20291;-65
2022/12/20 06:11:29;;;;;;;8.73;6.40;;;7.80;99.90;;;;;;5092173;28;20210;-64
2022/12/20 06:13:55;;;;;;;10.70;7.20;;;7.90;99.90;;;;;;5092140;28;20705;-65
2022/12/20 06:16:22;;;;;;;10.50;6.30;;;8.00;99.90;;;;;;5092341;28;20228;-65
2022/12/20 06:18:49;;;;;;;12.37;8.30;;;8.10;99.90;;;;;;5092576;28;20215;-65
2022/12/20 06:21:16;;;;;;;9.37;6.67;;;8.10;99.90;;;;;;5091882;28;20244;-66
2022/12/20 06:23:44;;;;;;;9.43;6.23;;;7.90;99.90;;;;;;5092079;28;20201;-65
2022/12/20 06:26:11;;;;;;;10.23;6.43;;;7.80;99.90;;;;;;5091840;28;20221;-65
2022/12/20 06:28:41;;;;;;;7.57;5.93;;;7.50;99.90;;;;;;5092203;28;20211;-68
2022/12/20 06:31:09;;;;;;;8.27;5.73;;;7.40;99.90;;;;;;5091566;28;20725;-65
2022/12/20 06:33:36;;;;;;;7.97;5.20;;;7.50;99.90;;;;;;5092582;28;20205;-65
2022/12/20 06:36:04;;;;;;;7.37;5.27;;;7.70;99.90;;;;;;5092711;28;20216;-65
2022/12/20 06:38:30;;;;;;;9.30;6.00;;;7.80;99.90;;;;;;5094640;28;20211;-65
2022/12/20 06:40:58;;;;;;;8.73;5.77;;;7.90;99.90;;;;;;5094977;28;20208;-65
2022/12/20 06:43:25;;;;;;;8.90;6.07;;;8.00;99.90;;;;;;5095837;28;20216;-65
2022/12/20 06:45:52;;;;;;;8.57;5.47;;;8.00;99.90;;;;;;5095850;28;20207;-66
2022/12/20 06:48:20;;;;;;;9.87;6.10;;;8.10;99.90;;;;;;5096146;28;20208;-66
2022/12/20 06:50:48;;;;;;;7.60;5.50;;;8.10;99.90;;;;;;5095585;28;20215;-65
2022/12/20 06:53:15;;;;;;;10.00;6.57;;;8.20;99.90;;;;;;5096068;28;20207;-65
2022/12/20 06:55:42;;;;;;;9.37;7.30;;;8.20;99.90;;;;;;5095389;28;20640;-64
2022/12/20 06:58:10;;;;;;;9.60;6.10;;;8.20;99.90;;;;;;5095762;28;20587;-65
2022/12/20 07:00:37;;;;;;;8.13;6.10;;;8.20;99.90;;;;;;5094828;28;20671;-62
2022/12/20 07:03:03;;;;;;;8.43;6.40;;;8.30;99.90;;;;;;5095106;28;20231;-65
2022/12/20 07:05:30;;;;;;;11.87;6.20;;;8.40;99.90;;;;;;5095351;28;20220;-64
2022/12/20 07:07:57;;;;;;;8.07;6.07;;;8.40;99.90;;;;;;5095548;28;20595;-65
2022/12/20 07:10:24;;;;;;;9.27;6.43;;;8.50;99.90;;;;;;5095285;28;20204;-66
2022/12/20 07:12:52;;;;;;;8.70;6.60;;;8.30;99.90;;;;;;5095775;28;20205;-65
2022/12/20 07:15:21;;;;;;;9.17;6.13;;;8.10;99.90;;;;;;5095276;28;20216;-65
2022/12/20 07:17:48;;;;;;;9.70;6.87;;;8.10;99.90;;;;;;5094706;28;20357;-64
2022/12/20 07:20:16;;;;;;;10.23;7.10;;;7.90;99.90;;;;;;5094796;28;20222;-66
2022/12/20 07:22:43;;;;;;;10.80;7.70;;;7.70;99.90;;;;;;5094375;28;20250;-66
2022/12/20 07:25:10;;;;;;;12.00;8.23;;;7.70;99.90;;;;;;5094568;28;20208;-65
2022/12/20 07:27:37;;;;;;;11.47;8.57;;;7.40;99.90;;;;;;5095018;28;20236;-66
2022/12/20 07:30:05;;;;;;;12.30;8.10;;;7.10;99.90;;;;;;5094673;28;20207;-65
2022/12/20 07:32:33;;;;;;;11.70;8.50;;;6.90;99.90;;;;;;5094048;28;20197;-64
2022/12/20 07:35:00;;;;;;;12.97;8.00;;;6.90;99.90;;;;;;5099468;28;20236;-63
2022/12/20 07:37:28;;;;;;;12.23;8.33;;;7.10;99.90;;;;;;5094596;28;20256;-63
2022/12/20 07:39:55;;;;;;;12.67;8.00;;;7.40;99.90;;;;;;5094517;28;20204;-64
2022/12/20 07:42:22;;;;;;;11.13;8.50;;;7.50;99.90;;;;;;5099879;28;20228;-65
2022/12/20 07:44:49;;;;;;;12.37;8.03;;;7.70;99.90;;;;;;5095662;28;20204;-63
2022/12/20 07:47:16;;;;;;;12.10;8.50;;;7.70;99.90;;;;;;5100117;28;20232;-63
2022/12/20 07:49:44;;;;;;;10.67;7.80;;;7.80;99.90;;;;;;5094364;28;20204;-63
2022/12/20 07:52:14;;;;;;;10.83;7.07;;;7.80;99.90;;;;;;5093593;28;20211;-62
2022/12/20 07:54:45;;;;;;;10.47;7.60;;;7.90;99.90;;;;;;5094606;28;20273;-63
2022/12/20 07:57:15;;;;;;;9.33;6.67;;;7.90;99.90;;;;;;5094424;28;20250;-63
2022/12/20 07:59:47;;;;;;;11.80;7.33;;;7.90;99.90;;;;;;5095048;28;20208;-63
2022/12/20 08:02:18;;;;;;;12.60;8.50;;;7.90;99.90;;;;;;5094276;28;20235;-63
2022/12/20 08:04:47;;;;;;;12.10;7.53;;;7.80;99.90;;;;;;5094021;28;20728;-63
2022/12/20 08:07:14;;;;;;;9.80;7.07;;;7.80;99.90;;;;;;5094848;28;20231;-63
2022/12/20 08:09:43;;;;;;;10.30;7.40;;;7.70;99.90;;;;;;5093987;28;20563;-64
2022/12/20 08:12:12;;;;;;;10.60;7.00;;;7.80;99.90;;;;;;5093490;28;20207;-62
2022/12/20 08:14:39;;;;;;;10.60;7.17;;;7.90;99.90;;;;;;5093857;28;20204;-63
2022/12/20 08:17:06;;;;;;;10.80;7.03;;;8.00;99.90;;;;;;5093490;28;20227;-62
2022/12/20 08:19:33;;;;;;;9.33;6.93;;;8.10;99.90;;;;;;5093455;28;20215;-63
2022/12/20 08:22:01;;;;;;;9.40;6.70;;;8.10;99.90;;;;;;5092719;28;20763;-62
2022/12/20 08:24:28;;;;;;;9.23;6.77;;;8.20;99.90;;;;;;5093544;28;20208;-63
2022/12/20 08:26:55;;;;;;;9.70;6.30;;;8.30;99.90;;;;;;5093263;28;20327;-62
2022/12/20 08:29:21;;;;;;;10.63;6.63;;;8.30;99.90;;;;;;5093312;28;20200;-62
2022/12/20 08:31:48;;;;;;;8.87;6.67;;;8.20;99.90;;;;;;5092528;28;20617;-61
2022/12/20 08:34:15;;;;;;;10.50;6.63;;;8.20;99.90;;;;;;5093271;28;20207;-64
2022/12/20 08:36:42;;;;;;;9.47;6.97;;;8.10;99.90;;;;;;5093093;28;20219;-62
2022/12/20 08:39:11;;;;;;;10.50;7.13;;;8.00;99.90;;;;;;5093177;28;20227;-63
2022/12/20 08:41:38;;;;;;;11.37;7.40;;;8.10;99.90;;;;;;5092207;28;20710;-62
2022/12/20 08:44:05;;;;;;;10.03;6.67;;;8.20;99.90;;;;;;5092891;28;20552;-62
2022/12/20 08:46:32;;;;;;;10.60;6.83;;;8.30;99.90;;;;;;5092742;28;20251;-63
2022/12/20 08:48:58;;;;;;;8.83;6.00;;;8.30;99.90;;;;;;5092965;28;20614;-63
2022/12/20 08:51:25;;;;;;;7.63;5.57;;;8.30;99.90;;;;;;5092279;28;20211;-63
2022/12/20 08:53:53;;;;;;;8.70;6.27;;;8.30;99.90;;;;;;5092791;28;20204;-63
2022/12/20 08:56:21;;;;;;;7.63;5.70;;;8.40;99.90;;;;;;5092577;28;20576;-63
2022/12/20 08:58:48;;;;;;;9.17;5.90;;;8.60;99.90;;;;;;5092659;28;20208;-63
2022/12/20 09:01:17;;;;;;;7.80;5.60;;;8.70;99.90;;;;;;5092205;28;20211;-63
2022/12/20 09:03:44;;;;;;;8.90;5.63;;;8.80;99.90;;;;;;5092593;28;20594;-62
2022/12/20 09:06:13;;;;;;;6.67;4.90;;;8.90;99.90;;;;;;5092666;28;20235;-61
2022/12/20 09:08:40;;;;;;;6.93;4.93;;;9.00;99.90;;;;;;5092238;28;20212;-63
2022/12/20 09:11:10;;;;;;;6.57;5.10;;;9.20;99.90;;;;;;5092395;28;20219;-62
2022/12/20 09:13:39;;;;;;;8.33;5.47;;;9.40;99.90;;;;;;5092671;28;20294;-62
2022/12/20 09:16:07;;;;;;;7.20;5.10;;;9.50;99.90;;;;;;5092612;28;20204;-62
2022/12/20 09:18:34;;;;;;;7.10;4.93;;;9.80;99.90;;;;;;5092234;28;20699;-63
2022/12/20 09:21:02;;;;;;;8.90;5.00;;;10.00;99.90;;;;;;5091784;28;20204;-62
2022/12/20 09:23:30;;;;;;;8.03;4.93;;;10.10;99.90;;;;;;5092219;28;20294;-63
2022/12/20 09:26:01;;;;;;;6.70;5.17;;;10.30;99.90;;;;;;5092117;28;20716;-63
2022/12/20 09:28:28;;;;;;;7.03;4.87;;;10.30;99.90;;;;;;5092171;28;20616;-63
2022/12/20 09:30:59;;;;;;;8.93;5.83;;;10.40;99.90;;;;;;5091563;28;20208;-63
2022/12/20 09:33:26;;;;;;;8.45;4.82;;;10.40;99.90;;;;;;5090122;28;20485;-62
2022/12/20 09:35:52;;;;;;;6.33;4.67;;;10.30;99.90;;;;;;5088473;28;20203;-63
2022/12/20 09:38:19;;;;;;;6.17;4.27;;;10.30;99.90;;;;;;5091066;28;20200;-63
2022/12/20 09:40:48;;;;;;;5.83;4.10;;;10.10;99.90;;;;;;5091129;28;20227;-64
2022/12/20 09:43:17;;;;;;;5.80;4.50;;;10.00;99.90;;;;;;5090789;28;20231;-68
2022/12/20 09:45:46;;;;;;;5.83;3.90;;;10.10;99.90;;;;;;5090453;28;20234;-65
2022/12/20 09:48:19;;;;;;;5.67;3.80;;;10.20;99.90;;;;;;5091258;28;20256;-65
2022/12/20 09:50:56;;;;;;;5.03;3.90;;;10.30;99.90;;;;;;5091047;28;20208;-64
2022/12/20 09:53:32;;;;;;;5.33;4.03;;;10.20;99.90;;;;;;5090706;28;20529;-64
2022/12/20 09:56:05;;;;;;;4.37;3.87;;;10.20;99.90;;;;;;5090802;28;20207;-63
2022/12/20 09:58:43;;;;;;;8.23;4.43;;;10.30;99.90;;;;;;5091166;28;20236;-64
2022/12/20 10:01:17;;;;;;;7.77;3.83;;;10.30;99.90;;;;;;5090230;28;20298;-65
2022/12/20 10:03:45;;;;;;;4.57;3.37;;;10.30;99.90;;;;;;5090295;28;20283;-64
2022/12/20 10:06:22;;;;;;;5.17;4.00;;;10.30;99.90;;;;;;5090658;28;20227;-64
2022/12/20 10:08:54;;;;;;;4.33;3.70;;;10.20;99.90;;;;;;5091064;28;20203;-63
2022/12/20 10:11:42;;;;;;;4.57;3.60;;;10.20;99.90;;;;;;5090257;28;20211;-64
2022/12/20 10:14:20;;;;;;;6.07;3.80;;;10.40;99.90;;;;;;5093935;28;20208;-64
2022/12/20 10:16:52;;;;;;;6.60;3.73;;;10.60;99.90;;;;;;5094024;28;20591;-67
2022/12/20 10:19:46;;;;;;;4.87;3.63;;;11.00;99.90;;;;;;5095221;28;20204;-64
2022/12/20 10:22:20;;;;;;;4.87;4.00;;;11.10;99.90;;;;;;5094961;28;20224;-64
2022/12/20 10:24:56;;;;;;;5.17;4.10;;;11.00;99.90;;;;;;5096282;28;20219;-65
2022/12/20 10:27:22;;;;;;;4.57;3.47;;;10.80;99.90;;;;;;5095730;28;20726;-65
2022/12/20 10:29:50;;;;;;;5.07;3.63;;;10.60;99.90;;;;;;5095455;28;20215;-65
2022/12/20 10:32:21;;;;;;;6.37;4.00;;;10.70;99.90;;;;;;5094839;28;20554;-63
2022/12/20 10:34:55;;;;;;;6.40;4.20;;;10.80;99.90;;;;;;5095193;28;20235;-64
2022/12/20 10:37:22;;;;;;;6.93;4.80;;;11.00;99.90;;;;;;5095541;28;20232;-63
2022/12/20 10:39:50;;;;;;;7.67;4.50;;;11.20;99.90;;;;;;5095364;28;20679;-63
2022/12/20 10:42:26;;;;;;;6.37;4.67;;;11.20;99.90;;;;;;5094984;28;20199;-63
2022/12/20 10:44:55;;;;;;;5.97;4.30;;;11.30;99.90;;;;;;5095160;28;20211;-64
2022/12/20 10:47:31;;;;;;;7.63;3.93;;;11.40;99.90;;;;;;5094951;28;20228;-63
2022/12/20 10:50:14;;;;;;;7.37;3.97;;;11.50;99.90;;;;;;5095895;28;20219;-64
2022/12/20 10:52:41;;;;;;;5.50;4.10;;;11.50;99.90;;;;;;5097344;28;20239;-63
2022/12/20 10:55:32;;;;;;;5.50;4.27;;;11.70;99.90;;;;;;5114222;28;20222;-62
2022/12/20 10:58:03;;;;;;;7.27;4.60;;;11.90;99.90;;;;;;5109303;28;20295;-62
2022/12/20 11:00:31;;;;;;;7.47;4.30;;;12.00;99.90;;;;;;5101335;28;20228;-62
2022/12/20 11:03:12;;;;;;;6.20;4.10;;;12.00;99.90;;;;;;5095184;28;20525;-64
2022/12/20 11:05:40;;;;;;;6.83;3.70;;;12.00;99.90;;;;;;5095932;28;20208;-62
2022/12/20 11:08:14;;;;;;;5.33;3.57;;;12.00;99.90;;;;;;5095693;28;20231;-62
2022/12/20 11:10:41;;;;;;;7.33;4.53;;;12.00;99.90;;;;;;5095467;28;20214;-63
2022/12/20 11:13:20;;;;;;;6.80;4.07;;;12.10;99.90;;;;;;5094960;28;20236;-62
2022/12/20 11:15:49;;;;;;;6.83;4.53;;;12.00;99.90;;;;;;5096346;28;20212;-63
2022/12/20 11:18:22;;;;;;;6.77;4.70;;;12.10;99.90;;;;;;5095787;28;20489;-63
2022/12/20 11:21:03;;;;;;;6.87;4.47;;;12.10;99.90;;;;;;5096051;28;20223;-65
2022/12/20 11:23:36;;;;;;;7.37;4.67;;;12.10;99.90;;;;;;5095367;28;20279;-63
2022/12/20 11:26:18;;;;;;;7.20;5.17;;;12.10;99.90;;;;;;5094897;28;20590;-63
2022/12/20 11:28:55;;;;;;;7.87;4.50;;;12.00;99.90;;;;;;5095575;28;20200;-63
2022/12/20 11:31:41;;;;;;;7.30;5.30;;;12.00;99.90;;;;;;5094449;28;20199;-64
2022/12/20 11:34:19;;;;;;;7.53;4.17;;;11.90;99.90;;;;;;5097961;28;20270;-64
2022/12/20 11:37:09;;;;;;;6.60;4.23;;;11.90;99.90;;;;;;5095245;28;20224;-64
2022/12/20 11:39:46;;;;;;;6.83;4.93;;;11.90;99.90;;;;;;5096420;28;20208;-64
2022/12/20 11:42:24;;;;;;;7.50;4.70;;;12.00;99.90;;;;;;5096049;28;20215;-62
2022/12/20 11:44:57;;;;;;;8.30;4.80;;;12.00;99.90;;;;;;5095089;28;20226;-63
2022/12/20 11:47:46;;;;;;;6.67;5.07;;;12.00;99.90;;;;;;5096143;28;20315;-64
2022/12/20 11:50:34;;;;;;;7.10;4.53;;;12.10;99.90;;;;;;5095892;28;20215;-63
2022/12/20 11:53:08;;;;;;;5.57;4.60;;;12.10;99.90;;;;;;5091625;28;20231;-65
2022/12/20 11:55:37;;;;;;;6.20;4.53;;;12.20;99.90;;;;;;5095980;28;20210;-62
2022/12/20 11:58:11;;;;;;;6.80;4.77;;;12.20;99.90;;;;;;5094850;28;20228;-63
2022/12/20 12:00:41;;;;;;;6.13;4.93;;;11.90;99.90;;;;;;5094879;28;20212;-63
2022/12/20 12:03:14;;;;;;;6.50;4.97;;;11.80;99.90;;;;;;5093970;28;20299;-63
2022/12/20 12:05:45;;;;;;;6.67;4.67;;;11.90;99.90;;;;;;5094583;28;20208;-64
2022/12/20 12:08:18;;;;;;;7.27;4.27;;;11.90;99.90;;;;;;5095254;28;20284;-63
2022/12/20 12:10:59;;;;;;;8.00;4.67;;;11.90;99.90;;;;;;5095863;28;20243;-64
2022/12/20 12:13:28;;;;;;;7.60;5.57;;;11.80;99.90;;;;;;5095023;28;20220;-63
2022/12/20 12:16:01;;;;;;;6.97;4.93;;;11.60;99.90;;;;;;5094647;28;20208;-63
2022/12/20 12:18:31;;;;;;;6.70;4.87;;;11.50;99.90;;;;;;5094707;28;20219;-63
2022/12/20 12:21:04;;;;;;;8.20;4.60;;;11.60;99.90;;;;;;5095079;28;20514;-63
2022/12/20 12:23:38;;;;;;;7.90;5.20;;;11.70;99.90;;;;;;5093101;28;20664;-63
2022/12/20 12:26:11;;;;;;;7.80;4.70;;;11.50;99.90;;;;;;5094549;28;20622;-63
2022/12/20 12:28:38;;;;;;;8.60;4.87;;;11.40;99.90;;;;;;5093945;28;20216;-62
2022/12/20 12:31:10;;;;;;;6.77;4.77;;;11.50;99.90;;;;;;5093706;28;20211;-62
2022/12/20 12:33:43;;;;;;;7.43;5.63;;;11.70;99.90;;;;;;5094071;28;20228;-64
2022/12/20 12:36:38;;;;;;;8.13;5.53;;;11.80;99.90;;;;;;5093584;28;20228;-64
2022/12/20 12:39:30;;;;;;;7.63;5.13;;;11.60;99.90;;;;;;5094946;28;20208;-64
2022/12/20 12:42:40;;;;;;;9.10;5.00;;;11.60;99.90;;;;;;5094512;28;20200;-64
2022/12/20 12:45:16;;;;;;;7.40;4.30;;;11.70;99.90;;;;;;5087759;28;20690;-64
2022/12/20 12:47:48;;;;;;;7.30;4.53;;;11.80;99.90;;;;;;5103695;28;20223;-63
2022/12/20 12:50:24;;;;;;;6.10;4.43;;;11.90;99.90;;;;;;5107877;28;20215;-63
2022/12/20 12:52:53;;;;;;;8.03;4.80;;;11.90;99.90;;;;;;5100209;28;20211;-64
2022/12/20 12:55:41;;;;;;;7.93;4.87;;;11.90;99.90;;;;;;5093208;28;20679;-64
2022/12/20 12:58:42;;;;;;;6.43;5.00;;;11.90;99.90;;;;;;5093211;28;20231;-62
2022/12/20 13:01:11;;;;;;;6.37;4.40;;;12.00;99.90;;;;;;5093757;28;20212;-64
2022/12/20 13:04:06;;;;;;;7.33;4.50;;;12.10;99.90;;;;;;5093004;28;20208;-64
2022/12/20 13:06:57;;;;;;;7.73;4.70;;;12.20;99.90;;;;;;5092773;28;20315;-63
2022/12/20 13:09:39;;;;;;;7.43;4.83;;;12.40;99.90;;;;;;5093409;28;20215;-63
2022/12/20 13:12:56;;;;;;;6.50;4.80;;;12.30;99.90;;;;;;5104718;28;20214;-62
2022/12/20 13:15:48;;;;;;;8.77;5.20;;;12.20;99.90;;;;;;5005960;28;20287;-65